Terminal Aerodrome Forecast
Issued by NWS

Home | Current Version | Previous Version | Text Only | Print | Product List | Glossary Off
Versions: 1 2 3 4 5 6 7 8 9 10 11 12 13 14 15 16 17

354
FTUS43 KICT 280244 AAB
TAFRSL
TAF AMD
KRSL 280244Z 2803/2824 VRB06KT P6SM VCTS SCT025CB OVC050CB
      TEMPO 2803/2805 VRB25G35KT 2SM +TSRA BKN025CB
     FM280500 30006KT P6SM VCTS SCT025CB BKN050
     FM280800 28007KT P6SM SCT090
     FM281600 29010KT P6SM SCT040=

USA.gov is the U.S. government's official web portal to all federal, state and local government web resources and services.